sensor_id;sensor_type;location;lat;lon;timestamp;temperature;humidity
64939;DHT22;51453;47.738;7.420;2022-09-09T00:09:58;15.70;99.90
64939;DHT22;51453;47.738;7.420;2022-09-09T00:15:20;15.80;99.90
64939;DHT22;51453;47.738;7.420;2022-09-09T00:20:30;15.80;99.90
64939;DHT22;51453;47.738;7.420;2022-09-09T00:25:54;15.80;99.90
64939;DHT22;51453;47.738;7.420;2022-09-09T00:28:26;15.90;99.90
64939;DHT22;51453;47.738;7.420;2022-09-09T00:30:52;16.00;99.90
64939;DHT22;51453;47.738;7.420;2022-09-09T00:33:23;15.90;99.90
64939;DHT22;51453;47.738;7.420;2022-09-09T00:36:00;15.90;99.90
64939;DHT22;51453;47.738;7.420;2022-09-09T00:38:36;15.90;99.90
64939;DHT22;51453;47.738;7.420;2022-09-09T00:41:11;15.90;99.90
64939;DHT22;51453;47.738;7.420;2022-09-09T00:43:40;15.80;99.90
64939;DHT22;51453;47.738;7.420;2022-09-09T00:48:59;15.80;99.90
64939;DHT22;51453;47.738;7.420;2022-09-09T00:57:13;15.70;99.90
64939;DHT22;51453;47.738;7.420;2022-09-09T00:59:52;15.80;99.90
64939;DHT22;51453;47.738;7.420;2022-09-09T01:02:30;15.80;99.90
64939;DHT22;51453;47.738;7.420;2022-09-09T01:05:23;15.80;99.90
64939;DHT22;51453;47.738;7.420;2022-09-09T01:07:52;15.80;99.90
64939;DHT22;51453;47.738;7.420;2022-09-09T01:10:50;15.90;99.90
64939;DHT22;51453;47.738;7.420;2022-09-09T01:13:27;16.00;99.90
64939;DHT22;51453;47.738;7.420;2022-09-09T01:15:57;16.00;99.90
64939;DHT22;51453;47.738;7.420;2022-09-09T01:18:27;15.90;99.90
64939;DHT22;51453;47.738;7.420;2022-09-09T01:21:05;15.90;99.90
64939;DHT22;51453;47.738;7.420;2022-09-09T01:26:35;15.90;99.90
64939;DHT22;51453;47.738;7.420;2022-09-09T01:29:04;15.90;99.90
64939;DHT22;51453;47.738;7.420;2022-09-09T01:31:37;15.90;99.90
64939;DHT22;51453;47.738;7.420;2022-09-09T01:34:12;15.90;99.90
64939;DHT22;51453;47.738;7.420;2022-09-09T01:37:07;15.80;99.90
64939;DHT22;51453;47.738;7.420;2022-09-09T01:39:35;15.80;99.90
64939;DHT22;51453;47.738;7.420;2022-09-09T01:42:03;15.70;99.90
64939;DHT22;51453;47.738;7.420;2022-09-09T01:44:30;15.70;99.90
64939;DHT22;51453;47.738;7.420;2022-09-09T01:46:56;15.70;99.90
64939;DHT22;51453;47.738;7.420;2022-09-09T01:49:22;15.60;99.90
64939;DHT22;51453;47.738;7.420;2022-09-09T01:51:51;15.60;99.90
64939;DHT22;51453;47.738;7.420;2022-09-09T01:54:20;15.70;99.90
64939;DHT22;51453;47.738;7.420;2022-09-09T01:59:26;15.70;99.90
64939;DHT22;51453;47.738;7.420;2022-09-09T02:07:49;15.60;99.90
64939;DHT22;51453;47.738;7.420;2022-09-09T02:10:20;15.60;99.90
64939;DHT22;51453;47.738;7.420;2022-09-09T02:12:51;15.60;99.90
64939;DHT22;51453;47.738;7.420;2022-09-09T02:15:36;15.60;99.90
64939;DHT22;51453;47.738;7.420;2022-09-09T02:18:07;15.60;99.90
64939;DHT22;51453;47.738;7.420;2022-09-09T02:20:36;15.50;99.90
64939;DHT22;51453;47.738;7.420;2022-09-09T02:23:04;15.50;99.90
64939;DHT22;51453;47.738;7.420;2022-09-09T02:25:30;15.50;99.90
64939;DHT22;51453;47.738;7.420;2022-09-09T02:27:56;15.50;99.90
64939;DHT22;51453;47.738;7.420;2022-09-09T02:30:27;15.50;99.90
64939;DHT22;51453;47.738;7.420;2022-09-09T02:32:56;15.50;99.90
64939;DHT22;51453;47.738;7.420;2022-09-09T02:35:24;15.50;99.90
64939;DHT22;51453;47.738;7.420;2022-09-09T02:37:54;15.50;99.90
64939;DHT22;51453;47.738;7.420;2022-09-09T02:40:22;15.50;99.90
64939;DHT22;51453;47.738;7.420;2022-09-09T02:42:48;15.50;99.90
64939;DHT22;51453;47.738;7.420;2022-09-09T02:45:19;15.50;99.90
64939;DHT22;51453;47.738;7.420;2022-09-09T02:50:27;15.50;99.90
64939;DHT22;51453;47.738;7.420;2022-09-09T02:53:09;15.50;99.90
64939;DHT22;51453;47.738;7.420;2022-09-09T02:58:16;15.50;99.90
64939;DHT22;51453;47.738;7.420;2022-09-09T03:00:44;15.50;99.90
64939;DHT22;51453;47.738;7.420;2022-09-09T03:03:11;15.50;99.90
64939;DHT22;51453;47.738;7.420;2022-09-09T03:05:37;15.60;99.90
64939;DHT22;51453;47.738;7.420;2022-09-09T03:08:05;15.50;99.90
64939;DHT22;51453;47.738;7.420;2022-09-09T03:10:31;15.50;99.90
64939;DHT22;51453;47.738;7.420;2022-09-09T03:12:57;15.50;99.90
64939;DHT22;51453;47.738;7.420;2022-09-09T03:15:23;15.50;99.90
64939;DHT22;51453;47.738;7.420;2022-09-09T03:17:49;15.50;99.90
64939;DHT22;51453;47.738;7.420;2022-09-09T03:20:14;15.50;99.90
64939;DHT22;51453;47.738;7.420;2022-09-09T03:22:40;15.40;99.90
64939;DHT22;51453;47.738;7.420;2022-09-09T03:25:06;15.40;99.90
64939;DHT22;51453;47.738;7.420;2022-09-09T03:27:32;15.30;99.90
64939;DHT22;51453;47.738;7.420;2022-09-09T03:29:58;15.20;99.90
64939;DHT22;51453;47.738;7.420;2022-09-09T03:32:24;15.20;99.90
64939;DHT22;51453;47.738;7.420;2022-09-09T03:34:51;15.10;99.90
64939;DHT22;51453;47.738;7.420;2022-09-09T03:37:18;15.00;99.90
64939;DHT22;51453;47.738;7.420;2022-09-09T03:39:44;15.00;99.90
64939;DHT22;51453;47.738;7.420;2022-09-09T03:42:12;14.90;99.90
64939;DHT22;51453;47.738;7.420;2022-09-09T03:44:40;14.90;99.90
64939;DHT22;51453;47.738;7.420;2022-09-09T03:47:07;14.80;99.90
64939;DHT22;51453;47.738;7.420;2022-09-09T03:49:33;14.70;99.90
64939;DHT22;51453;47.738;7.420;2022-09-09T03:51:59;14.80;99.90
64939;DHT22;51453;47.738;7.420;2022-09-09T03:54:26;14.70;99.90
64939;DHT22;51453;47.738;7.420;2022-09-09T03:56:53;14.70;99.90
64939;DHT22;51453;47.738;7.420;2022-09-09T03:59:18;14.60;99.90
64939;DHT22;51453;47.738;7.420;2022-09-09T04:01:46;14.60;99.90
64939;DHT22;51453;47.738;7.420;2022-09-09T04:04:12;14.60;99.90
64939;DHT22;51453;47.738;7.420;2022-09-09T04:06:38;14.70;99.90
64939;DHT22;51453;47.738;7.420;2022-09-09T04:09:04;14.60;99.90
64939;DHT22;51453;47.738;7.420;2022-09-09T04:11:30;14.70;99.90
64939;DHT22;51453;47.738;7.420;2022-09-09T04:13:55;14.70;99.90
64939;DHT22;51453;47.738;7.420;2022-09-09T04:16:21;14.70;99.90
64939;DHT22;51453;47.738;7.420;2022-09-09T04:18:47;14.70;99.90
64939;DHT22;51453;47.738;7.420;2022-09-09T04:21:13;14.70;99.90
64939;DHT22;51453;47.738;7.420;2022-09-09T04:23:40;14.80;99.90
64939;DHT22;51453;47.738;7.420;2022-09-09T04:26:06;14.80;99.90
64939;DHT22;51453;47.738;7.420;2022-09-09T04:28:35;14.90;99.90
64939;DHT22;51453;47.738;7.420;2022-09-09T04:31:06;14.90;99.90
64939;DHT22;51453;47.738;7.420;2022-09-09T04:33:32;14.90;99.90
64939;DHT22;51453;47.738;7.420;2022-09-09T04:35:58;15.00;99.90
64939;DHT22;51453;47.738;7.420;2022-09-09T04:38:23;15.00;99.90
64939;DHT22;51453;47.738;7.420;2022-09-09T04:40:50;15.00;99.90
64939;DHT22;51453;47.738;7.420;2022-09-09T04:43:17;15.00;99.90
64939;DHT22;51453;47.738;7.420;2022-09-09T04:45:47;15.10;99.90
64939;DHT22;51453;47.738;7.420;2022-09-09T04:48:13;15.10;99.90
64939;DHT22;51453;47.738;7.420;2022-09-09T04:50:39;15.10;99.90
64939;DHT22;51453;47.738;7.420;2022-09-09T04:53:06;15.20;99.90
64939;DHT22;51453;47.738;7.420;2022-09-09T04:55:33;15.20;99.90
64939;DHT22;51453;47.738;7.420;2022-09-09T04:58:07;15.30;99.90
64939;DHT22;51453;47.738;7.420;2022-09-09T05:00:34;15.30;99.90
64939;DHT22;51453;47.738;7.420;2022-09-09T05:03:05;15.40;99.90
64939;DHT22;51453;47.738;7.420;2022-09-09T05:05:32;15.40;99.90
64939;DHT22;51453;47.738;7.420;2022-09-09T05:08:07;15.30;99.90
64939;DHT22;51453;47.738;7.420;2022-09-09T05:10:34;15.40;99.90
64939;DHT22;51453;47.738;7.420;2022-09-09T05:13:01;15.30;99.90
64939;DHT22;51453;47.738;7.420;2022-09-09T05:15:27;15.30;99.90
64939;DHT22;51453;47.738;7.420;2022-09-09T05:17:57;15.30;99.90
64939;DHT22;51453;47.738;7.420;2022-09-09T05:20:24;15.20;99.90
64939;DHT22;51453;47.738;7.420;2022-09-09T05:22:55;15.20;99.90
64939;DHT22;51453;47.738;7.420;2022-09-09T05:25:22;15.10;99.90
64939;DHT22;51453;47.738;7.420;2022-09-09T05:27:51;15.20;99.90
64939;DHT22;51453;47.738;7.420;2022-09-09T05:30:17;15.20;99.90
64939;DHT22;51453;47.738;7.420;2022-09-09T05:32:44;15.20;99.90
64939;DHT22;51453;47.738;7.420;2022-09-09T05:35:10;15.30;99.90
64939;DHT22;51453;47.738;7.420;2022-09-09T05:37:35;15.30;99.90
64939;DHT22;51453;47.738;7.420;2022-09-09T05:40:01;15.30;99.90
64939;DHT22;51453;47.738;7.420;2022-09-09T05:42:30;15.40;99.90
64939;DHT22;51453;47.738;7.420;2022-09-09T05:44:56;15.40;99.90
64939;DHT22;51453;47.738;7.420;2022-09-09T05:47:23;15.40;99.90
64939;DHT22;51453;47.738;7.420;2022-09-09T05:49:49;15.40;99.90
64939;DHT22;51453;47.738;7.420;2022-09-09T05:52:14;15.50;99.90
64939;DHT22;51453;47.738;7.420;2022-09-09T05:54:40;15.50;99.90
64939;DHT22;51453;47.738;7.420;2022-09-09T05:57:07;15.50;99.90
64939;DHT22;51453;47.738;7.420;2022-09-09T05:59:32;15.50;99.90
64939;DHT22;51453;47.738;7.420;2022-09-09T06:01:58;15.50;99.90
64939;DHT22;51453;47.738;7.420;2022-09-09T06:04:24;15.50;99.90
64939;DHT22;51453;47.738;7.420;2022-09-09T06:06:50;15.50;99.90
64939;DHT22;51453;47.738;7.420;2022-09-09T06:09:16;15.50;99.90
64939;DHT22;51453;47.738;7.420;2022-09-09T06:11:42;15.60;99.90
64939;DHT22;51453;47.738;7.420;2022-09-09T06:14:08;15.70;99.90
64939;DHT22;51453;47.738;7.420;2022-09-09T06:16:34;15.70;99.90
64939;DHT22;51453;47.738;7.420;2022-09-09T06:19:01;15.90;99.90
64939;DHT22;51453;47.738;7.420;2022-09-09T06:21:36;16.00;99.90
64939;DHT22;51453;47.738;7.420;2022-09-09T06:24:03;16.10;99.90
64939;DHT22;51453;47.738;7.420;2022-09-09T06:26:34;16.20;99.90
64939;DHT22;51453;47.738;7.420;2022-09-09T06:29:00;16.30;99.90
64939;DHT22;51453;47.738;7.420;2022-09-09T06:31:30;16.40;99.90
64939;DHT22;51453;47.738;7.420;2022-09-09T06:33:57;16.60;99.90
64939;DHT22;51453;47.738;7.420;2022-09-09T06:36:34;16.70;99.90
64939;DHT22;51453;47.738;7.420;2022-09-09T06:39:01;16.90;99.90
64939;DHT22;51453;47.738;7.420;2022-09-09T06:41:28;17.00;99.90
64939;DHT22;51453;47.738;7.420;2022-09-09T06:43:55;17.10;99.90
64939;DHT22;51453;47.738;7.420;2022-09-09T06:46:27;17.10;99.90
64939;DHT22;51453;47.738;7.420;2022-09-09T06:48:54;17.20;99.90
64939;DHT22;51453;47.738;7.420;2022-09-09T06:51:35;17.30;99.90
64939;DHT22;51453;47.738;7.420;2022-09-09T06:54:02;17.70;99.90
64939;DHT22;51453;47.738;7.420;2022-09-09T06:56:36;17.90;99.90
64939;DHT22;51453;47.738;7.420;2022-09-09T06:59:04;18.10;99.90
64939;DHT22;51453;47.738;7.420;2022-09-09T07:01:36;18.20;99.90
64939;DHT22;51453;47.738;7.420;2022-09-09T07:04:03;18.20;99.90
64939;DHT22;51453;47.738;7.420;2022-09-09T07:06:32;18.30;99.90
64939;DHT22;51453;47.738;7.420;2022-09-09T07:09:00;18.50;99.90
64939;DHT22;51453;47.738;7.420;2022-09-09T07:11:29;18.80;99.90
64939;DHT22;51453;47.738;7.420;2022-09-09T07:13:56;19.00;99.90
64939;DHT22;51453;47.738;7.420;2022-09-09T07:16:23;19.20;99.90
64939;DHT22;51453;47.738;7.420;2022-09-09T07:18:53;19.20;99.90
64939;DHT22;51453;47.738;7.420;2022-09-09T07:21:24;19.00;99.90
64939;DHT22;51453;47.738;7.420;2022-09-09T07:23:51;18.90;99.90
64939;DHT22;51453;47.738;7.420;2022-09-09T07:26:20;18.80;99.90
64939;DHT22;51453;47.738;7.420;2022-09-09T07:28:46;18.70;99.90
64939;DHT22;51453;47.738;7.420;2022-09-09T07:31:26;18.80;99.90
64939;DHT22;51453;47.738;7.420;2022-09-09T07:33:52;18.80;99.90
64939;DHT22;51453;47.738;7.420;2022-09-09T07:36:24;18.90;99.90
64939;DHT22;51453;47.738;7.420;2022-09-09T07:39:00;18.90;99.90
64939;DHT22;51453;47.738;7.420;2022-09-09T07:41:29;18.90;99.90
64939;DHT22;51453;47.738;7.420;2022-09-09T07:43:57;18.80;99.90
64939;DHT22;51453;47.738;7.420;2022-09-09T07:46:25;18.80;99.90
64939;DHT22;51453;47.738;7.420;2022-09-09T07:48:53;18.80;99.90
64939;DHT22;51453;47.738;7.420;2022-09-09T07:51:29;18.70;99.90
64939;DHT22;51453;47.738;7.420;2022-09-09T07:54:01;18.70;99.90
64939;DHT22;51453;47.738;7.420;2022-09-09T07:56:28;18.80;99.90
64939;DHT22;51453;47.738;7.420;2022-09-09T07:58:55;18.90;99.90
64939;DHT22;51453;47.738;7.420;2022-09-09T08:03:57;19.10;99.90
64939;DHT22;51453;47.738;7.420;2022-09-09T08:06:25;19.20;99.90
64939;DHT22;51453;47.738;7.420;2022-09-09T08:08:52;19.40;99.90
64939;DHT22;51453;47.738;7.420;2022-09-09T08:11:21;19.60;99.90
64939;DHT22;51453;47.738;7.420;2022-09-09T08:13:49;19.70;99.90
64939;DHT22;51453;47.738;7.420;2022-09-09T08:16:18;19.80;99.90
64939;DHT22;51453;47.738;7.420;2022-09-09T08:18:44;19.80;99.90
64939;DHT22;51453;47.738;7.420;2022-09-09T08:21:19;20.00;99.90
64939;DHT22;51453;47.738;7.420;2022-09-09T08:23:46;20.00;99.90
64939;DHT22;51453;47.738;7.420;2022-09-09T08:26:13;19.90;99.90
64939;DHT22;51453;47.738;7.420;2022-09-09T08:28:40;19.90;99.90
64939;DHT22;51453;47.738;7.420;2022-09-09T08:31:14;19.80;99.90
64939;DHT22;51453;47.738;7.420;2022-09-09T08:33:41;19.80;99.90
64939;DHT22;51453;47.738;7.420;2022-09-09T08:36:10;19.70;99.90
64939;DHT22;51453;47.738;7.420;2022-09-09T08:38:36;19.80;99.90
64939;DHT22;51453;47.738;7.420;2022-09-09T08:57:52;20.30;99.90
64939;DHT22;51453;47.738;7.420;2022-09-09T09:00:20;20.40;99.90
64939;DHT22;51453;47.738;7.420;2022-09-09T09:02:54;20.40;99.90
64939;DHT22;51453;47.738;7.420;2022-09-09T09:05:40;20.50;99.90
64939;DHT22;51453;47.738;7.420;2022-09-09T09:13:18;20.90;99.90
64939;DHT22;51453;47.738;7.420;2022-09-09T09:15:51;21.00;99.90
64939;DHT22;51453;47.738;7.420;2022-09-09T09:18:19;20.90;99.90
64939;DHT22;51453;47.738;7.420;2022-09-09T09:20:54;21.00;99.90
64939;DHT22;51453;47.738;7.420;2022-09-09T09:23:23;21.00;99.90
64939;DHT22;51453;47.738;7.420;2022-09-09T09:25:50;21.00;99.90
64939;DHT22;51453;47.738;7.420;2022-09-09T09:28:22;21.00;99.90
64939;DHT22;51453;47.738;7.420;2022-09-09T09:35:49;21.10;99.90
64939;DHT22;51453;47.738;7.420;2022-09-09T09:38:18;21.10;99.90
64939;DHT22;51453;47.738;7.420;2022-09-09T09:40:53;21.20;99.90
64939;DHT22;51453;47.738;7.420;2022-09-09T09:43:25;21.20;99.90
64939;DHT22;51453;47.738;7.420;2022-09-09T09:45:52;21.20;99.90
64939;DHT22;51453;47.738;7.420;2022-09-09T09:48:17;21.40;99.90
64939;DHT22;51453;47.738;7.420;2022-09-09T09:51:06;21.50;99.90
64939;DHT22;51453;47.738;7.420;2022-09-09T09:53:34;21.70;99.90
64939;DHT22;51453;47.738;7.420;2022-09-09T09:56:03;21.90;99.90
64939;DHT22;51453;47.738;7.420;2022-09-09T09:58:36;21.90;99.90
64939;DHT22;51453;47.738;7.420;2022-09-09T10:01:03;21.70;99.90
64939;DHT22;51453;47.738;7.420;2022-09-09T10:03:31;21.50;99.90
64939;DHT22;51453;47.738;7.420;2022-09-09T10:05:57;21.20;99.90
64939;DHT22;51453;47.738;7.420;2022-09-09T10:08:25;21.20;99.90
64939;DHT22;51453;47.738;7.420;2022-09-09T10:19:16;22.20;99.90
64939;DHT22;51453;47.738;7.420;2022-09-09T10:25:43;22.80;99.90
64939;DHT22;51453;47.738;7.420;2022-09-09T10:33:42;22.60;99.90
64939;DHT22;51453;47.738;7.420;2022-09-09T10:36:20;22.60;99.90
64939;DHT22;51453;47.738;7.420;2022-09-09T10:41:55;22.40;99.90
64939;DHT22;51453;47.738;7.420;2022-09-09T10:55:28;21.80;99.90
64939;DHT22;51453;47.738;7.420;2022-09-09T10:58:00;21.80;99.90
64939;DHT22;51453;47.738;7.420;2022-09-09T11:00:38;21.90;99.90
64939;DHT22;51453;47.738;7.420;2022-09-09T11:03:05;21.90;99.90
64939;DHT22;51453;47.738;7.420;2022-09-09T11:05:43;21.80;99.90
64939;DHT22;51453;47.738;7.420;2022-09-09T11:10:48;21.70;99.90
64939;DHT22;51453;47.738;7.420;2022-09-09T11:13:37;21.70;99.90
64939;DHT22;51453;47.738;7.420;2022-09-09T11:19:04;21.90;99.90
64939;DHT22;51453;47.738;7.420;2022-09-09T11:21:38;21.80;99.90
64939;DHT22;51453;47.738;7.420;2022-09-09T11:24:11;21.70;99.90
64939;DHT22;51453;47.738;7.420;2022-09-09T11:26:47;21.70;99.90
64939;DHT22;51453;47.738;7.420;2022-09-09T11:38:27;21.70;99.90
64939;DHT22;51453;47.738;7.420;2022-09-09T11:41:05;21.80;99.90
64939;DHT22;51453;47.738;7.420;2022-09-09T11:43:39;22.00;99.90
64939;DHT22;51453;47.738;7.420;2022-09-09T11:46:06;22.00;99.90
64939;DHT22;51453;47.738;7.420;2022-09-09T11:48:38;21.90;99.90
64939;DHT22;51453;47.738;7.420;2022-09-09T11:51:13;21.70;99.90
64939;DHT22;51453;47.738;7.420;2022-09-09T11:53:53;21.50;99.90
64939;DHT22;51453;47.738;7.420;2022-09-09T11:56:28;21.40;99.90
64939;DHT22;51453;47.738;7.420;2022-09-09T11:59:03;21.50;99.90
64939;DHT22;51453;47.738;7.420;2022-09-09T12:01:41;21.60;99.90
64939;DHT22;51453;47.738;7.420;2022-09-09T12:06:50;21.80;99.90
64939;DHT22;51453;47.738;7.420;2022-09-09T12:09:43;21.80;99.90
64939;DHT22;51453;47.738;7.420;2022-09-09T12:14:44;22.00;99.90
64939;DHT22;51453;47.738;7.420;2022-09-09T12:17:21;22.10;99.90
64939;DHT22;51453;47.738;7.420;2022-09-09T12:19:48;22.30;99.90
64939;DHT22;51453;47.738;7.420;2022-09-09T12:22:35;22.70;99.90
64939;DHT22;51453;47.738;7.420;2022-09-09T12:28:09;22.80;99.90
64939;DHT22;51453;47.738;7.420;2022-09-09T12:33:22;22.30;99.90
64939;DHT22;51453;47.738;7.420;2022-09-09T12:35:55;22.10;99.90
64939;DHT22;51453;47.738;7.420;2022-09-09T12:39:09;21.80;99.90
64939;DHT22;51453;47.738;7.420;2022-09-09T12:41:24;21.60;99.90
64939;DHT22;51453;47.738;7.420;2022-09-09T12:43:50;20.90;99.90
64939;DHT22;51453;47.738;7.420;2022-09-09T12:46:44;20.40;99.90
64939;DHT22;51453;47.738;7.420;2022-09-09T12:51:52;20.00;99.90
64939;DHT22;51453;47.738;7.420;2022-09-09T12:54:19;20.10;99.90
64939;DHT22;51453;47.738;7.420;2022-09-09T12:56:46;20.20;99.90
64939;DHT22;51453;47.738;7.420;2022-09-09T12:59:38;20.30;99.90
64939;DHT22;51453;47.738;7.420;2022-09-09T13:02:26;20.50;99.90
64939;DHT22;51453;47.738;7.420;2022-09-09T13:04:52;20.80;99.90
64939;DHT22;51453;47.738;7.420;2022-09-09T13:07:20;20.80;99.90
64939;DHT22;51453;47.738;7.420;2022-09-09T13:09:48;20.80;99.90
64939;DHT22;51453;47.738;7.420;2022-09-09T13:12:19;20.80;99.90
64939;DHT22;51453;47.738;7.420;2022-09-09T13:14:49;20.80;99.90
64939;DHT22;51453;47.738;7.420;2022-09-09T13:17:24;20.90;99.90
64939;DHT22;51453;47.738;7.420;2022-09-09T13:19:51;21.00;99.90
64939;DHT22;51453;47.738;7.420;2022-09-09T13:22:37;21.00;99.90
64939;DHT22;51453;47.738;7.420;2022-09-09T13:25:06;21.10;99.90
64939;DHT22;51453;47.738;7.420;2022-09-09T13:27:39;21.20;99.90
64939;DHT22;51453;47.738;7.420;2022-09-09T13:30:32;21.20;99.90
64939;DHT22;51453;47.738;7.420;2022-09-09T13:35:47;21.10;99.90
64939;DHT22;51453;47.738;7.420;2022-09-09T13:38:15;21.20;99.90
64939;DHT22;51453;47.738;7.420;2022-09-09T13:40:58;21.40;99.90
64939;DHT22;51453;47.738;7.420;2022-09-09T13:43:28;21.60;99.90
64939;DHT22;51453;47.738;7.420;2022-09-09T13:46:04;21.70;99.90
64939;DHT22;51453;47.738;7.420;2022-09-09T13:48:30;21.80;99.90
64939;DHT22;51453;47.738;7.420;2022-09-09T13:50:58;21.70;99.90
64939;DHT22;51453;47.738;7.420;2022-09-09T13:53:24;21.70;99.90
64939;DHT22;51453;47.738;7.420;2022-09-09T13:55:50;21.70;99.90
64939;DHT22;51453;47.738;7.420;2022-09-09T13:58:17;21.60;99.90
64939;DHT22;51453;47.738;7.420;2022-09-09T14:00:44;21.60;99.90
64939;DHT22;51453;47.738;7.420;2022-09-09T14:03:10;21.60;99.90
64939;DHT22;51453;47.738;7.420;2022-09-09T14:05:37;21.60;99.90
64939;DHT22;51453;47.738;7.420;2022-09-09T14:08:07;21.70;99.90
64939;DHT22;51453;47.738;7.420;2022-09-09T14:10:33;21.80;99.90
64939;DHT22;51453;47.738;7.420;2022-09-09T14:13:02;21.90;99.90
64939;DHT22;51453;47.738;7.420;2022-09-09T14:15:28;22.00;99.90
64939;DHT22;51453;47.738;7.420;2022-09-09T14:17:54;22.30;99.90
64939;DHT22;51453;47.738;7.420;2022-09-09T14:20:21;22.30;99.90
64939;DHT22;51453;47.738;7.420;2022-09-09T14:22:47;22.40;99.90
64939;DHT22;51453;47.738;7.420;2022-09-09T14:25:13;22.40;99.90
64939;DHT22;51453;47.738;7.420;2022-09-09T14:27:39;22.50;99.90
64939;DHT22;51453;47.738;7.420;2022-09-09T14:30:06;22.60;99.90
64939;DHT22;51453;47.738;7.420;2022-09-09T14:32:33;22.70;99.90
64939;DHT22;51453;47.738;7.420;2022-09-09T14:34:58;22.70;99.90
64939;DHT22;51453;47.738;7.420;2022-09-09T14:37:24;22.60;99.90
64939;DHT22;51453;47.738;7.420;2022-09-09T14:39:50;22.40;99.90
64939;DHT22;51453;47.738;7.420;2022-09-09T14:42:16;22.30;99.90
64939;DHT22;51453;47.738;7.420;2022-09-09T14:44:41;22.20;99.90
64939;DHT22;51453;47.738;7.420;2022-09-09T14:47:08;22.10;99.90
64939;DHT22;51453;47.738;7.420;2022-09-09T14:49:35;22.00;99.90
64939;DHT22;51453;47.738;7.420;2022-09-09T14:52:01;21.90;99.90
64939;DHT22;51453;47.738;7.420;2022-09-09T14:54:27;21.70;99.90
64939;DHT22;51453;47.738;7.420;2022-09-09T14:56:54;21.60;99.90
64939;DHT22;51453;47.738;7.420;2022-09-09T14:59:19;21.60;99.90
64939;DHT22;51453;47.738;7.420;2022-09-09T15:01:45;21.70;99.90
64939;DHT22;51453;47.738;7.420;2022-09-09T15:04:12;21.80;99.90
64939;DHT22;51453;47.738;7.420;2022-09-09T15:06:39;22.00;99.90
64939;DHT22;51453;47.738;7.420;2022-09-09T15:09:05;22.00;99.90
64939;DHT22;51453;47.738;7.420;2022-09-09T15:11:34;22.00;99.90
64939;DHT22;51453;47.738;7.420;2022-09-09T15:14:06;21.70;99.90
64939;DHT22;51453;47.738;7.420;2022-09-09T15:16:33;21.60;99.90
64939;DHT22;51453;47.738;7.420;2022-09-09T15:19:01;21.40;99.90
64939;DHT22;51453;47.738;7.420;2022-09-09T15:21:32;21.40;99.90
64939;DHT22;51453;47.738;7.420;2022-09-09T15:23:58;21.40;99.90
64939;DHT22;51453;47.738;7.420;2022-09-09T15:26:25;21.40;99.90
64939;DHT22;51453;47.738;7.420;2022-09-09T15:28:51;21.40;99.90
64939;DHT22;51453;47.738;7.420;2022-09-09T15:31:20;21.30;99.90
64939;DHT22;51453;47.738;7.420;2022-09-09T15:34:06;21.30;99.90
64939;DHT22;51453;47.738;7.420;2022-09-09T15:36:34;21.10;99.90
64939;DHT22;51453;47.738;7.420;2022-09-09T15:39:02;20.70;99.90
64939;DHT22;51453;47.738;7.420;2022-09-09T15:41:28;20.50;99.90
64939;DHT22;51453;47.738;7.420;2022-09-09T15:43:56;20.20;99.90
64939;DHT22;51453;47.738;7.420;2022-09-09T15:48:51;20.00;99.90
64939;DHT22;51453;47.738;7.420;2022-09-09T15:51:17;19.90;99.90
64939;DHT22;51453;47.738;7.420;2022-09-09T15:53:44;19.80;99.90
64939;DHT22;51453;47.738;7.420;2022-09-09T15:56:10;19.70;99.90
64939;DHT22;51453;47.738;7.420;2022-09-09T15:58:36;19.50;99.90
64939;DHT22;51453;47.738;7.420;2022-09-09T16:01:06;19.40;99.90
64939;DHT22;51453;47.738;7.420;2022-09-09T16:03:37;19.30;99.90
64939;DHT22;51453;47.738;7.420;2022-09-09T16:06:04;19.20;99.90
64939;DHT22;51453;47.738;7.420;2022-09-09T16:08:40;19.20;99.90
64939;DHT22;51453;47.738;7.420;2022-09-09T16:11:15;19.10;99.90
64939;DHT22;51453;47.738;7.420;2022-09-09T16:13:42;19.10;99.90
64939;DHT22;51453;47.738;7.420;2022-09-09T16:16:10;19.00;99.90
64939;DHT22;51453;47.738;7.420;2022-09-09T16:18:39;19.00;99.90
64939;DHT22;51453;47.738;7.420;2022-09-09T16:21:05;19.00;99.90
64939;DHT22;51453;47.738;7.420;2022-09-09T16:23:34;19.00;99.90
64939;DHT22;51453;47.738;7.420;2022-09-09T16:26:00;19.00;99.90
64939;DHT22;51453;47.738;7.420;2022-09-09T16:28:27;18.80;99.90
64939;DHT22;51453;47.738;7.420;2022-09-09T16:30:53;18.50;99.90
64939;DHT22;51453;47.738;7.420;2022-09-09T16:33:19;18.20;99.90
64939;DHT22;51453;47.738;7.420;2022-09-09T16:35:45;17.90;99.90
64939;DHT22;51453;47.738;7.420;2022-09-09T16:38:11;17.70;99.90
64939;DHT22;51453;47.738;7.420;2022-09-09T16:40:40;17.50;99.90
64939;DHT22;51453;47.738;7.420;2022-09-09T16:43:07;17.40;99.90
64939;DHT22;51453;47.738;7.420;2022-09-09T16:45:33;17.30;99.90
64939;DHT22;51453;47.738;7.420;2022-09-09T16:48:01;17.20;99.90
64939;DHT22;51453;47.738;7.420;2022-09-09T16:50:27;17.10;99.90
64939;DHT22;51453;47.738;7.420;2022-09-09T16:52:53;16.90;99.90
64939;DHT22;51453;47.738;7.420;2022-09-09T16:55:19;16.80;99.90
64939;DHT22;51453;47.738;7.420;2022-09-09T16:57:47;16.70;99.90
64939;DHT22;51453;47.738;7.420;2022-09-09T17:00:16;16.50;99.90
64939;DHT22;51453;47.738;7.420;2022-09-09T17:02:43;16.40;99.90
64939;DHT22;51453;47.738;7.420;2022-09-09T17:05:08;16.40;99.90
64939;DHT22;51453;47.738;7.420;2022-09-09T17:07:34;16.30;99.90
64939;DHT22;51453;47.738;7.420;2022-09-09T17:10:01;16.30;99.90
64939;DHT22;51453;47.738;7.420;2022-09-09T17:12:27;16.20;99.90
64939;DHT22;51453;47.738;7.420;2022-09-09T17:14:52;16.20;99.90
64939;DHT22;51453;47.738;7.420;2022-09-09T17:17:20;16.20;99.90
64939;DHT22;51453;47.738;7.420;2022-09-09T17:19:46;16.10;99.90
64939;DHT22;51453;47.738;7.420;2022-09-09T17:22:12;16.10;99.90
64939;DHT22;51453;47.738;7.420;2022-09-09T17:24:38;16.10;99.90
64939;DHT22;51453;47.738;7.420;2022-09-09T17:27:06;16.10;99.90
64939;DHT22;51453;47.738;7.420;2022-09-09T17:29:32;16.10;99.90
64939;DHT22;51453;47.738;7.420;2022-09-09T17:31:57;16.10;99.90
64939;DHT22;51453;47.738;7.420;2022-09-09T17:34:23;16.10;99.90
64939;DHT22;51453;47.738;7.420;2022-09-09T17:36:50;16.10;99.90
64939;DHT22;51453;47.738;7.420;2022-09-09T17:39:16;16.20;99.90
64939;DHT22;51453;47.738;7.420;2022-09-09T17:41:41;16.20;99.90
64939;DHT22;51453;47.738;7.420;2022-09-09T17:44:07;16.20;99.90
64939;DHT22;51453;47.738;7.420;2022-09-09T17:46:39;16.10;99.90
64939;DHT22;51453;47.738;7.420;2022-09-09T17:49:13;16.10;99.90
64939;DHT22;51453;47.738;7.420;2022-09-09T17:51:40;16.00;99.90
64939;DHT22;51453;47.738;7.420;2022-09-09T17:54:18;16.00;99.90
64939;DHT22;51453;47.738;7.420;2022-09-09T17:56:45;15.90;99.90
64939;DHT22;51453;47.738;7.420;2022-09-09T17:59:12;15.90;99.90
64939;DHT22;51453;47.738;7.420;2022-09-09T18:01:41;15.90;99.90